sensor_id;sensor_type;location;lat;lon;timestamp;temperature;humidity
27633;DHT22;15046;50.930;13.334;2022-09-09T00:03:59;14.00;99.90
27633;DHT22;15046;50.930;13.334;2022-09-09T00:06:42;14.00;99.90
27633;DHT22;15046;50.930;13.334;2022-09-09T00:09:21;14.00;99.90
27633;DHT22;15046;50.930;13.334;2022-09-09T00:12:33;14.10;99.90
27633;DHT22;15046;50.930;13.334;2022-09-09T00:15:18;14.10;99.90
27633;DHT22;15046;50.930;13.334;2022-09-09T00:17:55;14.10;99.90
27633;DHT22;15046;50.930;13.334;2022-09-09T00:20:30;14.10;99.90
27633;DHT22;15046;50.930;13.334;2022-09-09T00:23:14;14.10;99.90
27633;DHT22;15046;50.930;13.334;2022-09-09T00:26:00;14.10;99.90
27633;DHT22;15046;50.930;13.334;2022-09-09T00:28:28;14.10;99.90
27633;DHT22;15046;50.930;13.334;2022-09-09T00:31:16;14.10;99.90
27633;DHT22;15046;50.930;13.334;2022-09-09T00:33:44;14.10;99.90
27633;DHT22;15046;50.930;13.334;2022-09-09T00:36:14;14.10;99.90
27633;DHT22;15046;50.930;13.334;2022-09-09T00:38:48;14.10;99.90
27633;DHT22;15046;50.930;13.334;2022-09-09T00:44:31;14.10;99.90
27633;DHT22;15046;50.930;13.334;2022-09-09T00:50:03;14.00;99.90
27633;DHT22;15046;50.930;13.334;2022-09-09T00:55:34;13.90;99.90
27633;DHT22;15046;50.930;13.334;2022-09-09T00:58:07;13.90;99.90
27633;DHT22;15046;50.930;13.334;2022-09-09T01:01:01;13.90;99.90
27633;DHT22;15046;50.930;13.334;2022-09-09T01:03:37;13.90;99.90
27633;DHT22;15046;50.930;13.334;2022-09-09T01:17:17;13.80;99.90
27633;DHT22;15046;50.930;13.334;2022-09-09T01:25:19;13.70;99.90
27633;DHT22;15046;50.930;13.334;2022-09-09T01:27:47;13.70;99.90
27633;DHT22;15046;50.930;13.334;2022-09-09T01:30:16;13.70;99.90
27633;DHT22;15046;50.930;13.334;2022-09-09T01:32:45;13.70;99.90
27633;DHT22;15046;50.930;13.334;2022-09-09T01:35:23;13.70;99.90
27633;DHT22;15046;50.930;13.334;2022-09-09T01:37:52;13.70;99.90
27633;DHT22;15046;50.930;13.334;2022-09-09T01:40:18;13.70;99.90
27633;DHT22;15046;50.930;13.334;2022-09-09T01:42:44;13.80;99.90
27633;DHT22;15046;50.930;13.334;2022-09-09T01:45:10;13.80;99.90
27633;DHT22;15046;50.930;13.334;2022-09-09T01:47:36;13.80;99.90
27633;DHT22;15046;50.930;13.334;2022-09-09T01:50:03;13.80;99.90
27633;DHT22;15046;50.930;13.334;2022-09-09T01:52:29;13.80;99.90
27633;DHT22;15046;50.930;13.334;2022-09-09T01:54:56;13.80;99.90
27633;DHT22;15046;50.930;13.334;2022-09-09T01:57:31;13.80;99.90
27633;DHT22;15046;50.930;13.334;2022-09-09T02:03:00;13.80;99.90
27633;DHT22;15046;50.930;13.334;2022-09-09T02:08:17;13.80;99.90
27633;DHT22;15046;50.930;13.334;2022-09-09T02:11:14;13.90;99.90
27633;DHT22;15046;50.930;13.334;2022-09-09T02:13:46;13.90;99.90
27633;DHT22;15046;50.930;13.334;2022-09-09T02:19:08;13.90;99.90
27633;DHT22;15046;50.930;13.334;2022-09-09T02:21:37;13.90;99.90
27633;DHT22;15046;50.930;13.334;2022-09-09T02:24:06;13.90;99.90
27633;DHT22;15046;50.930;13.334;2022-09-09T02:26:39;13.80;99.90
27633;DHT22;15046;50.930;13.334;2022-09-09T02:29:08;13.90;99.90
27633;DHT22;15046;50.930;13.334;2022-09-09T02:31:34;13.90;99.90
27633;DHT22;15046;50.930;13.334;2022-09-09T02:34:03;13.90;99.90
27633;DHT22;15046;50.930;13.334;2022-09-09T02:36:32;13.80;99.90
27633;DHT22;15046;50.930;13.334;2022-09-09T02:39:00;13.80;99.90
27633;DHT22;15046;50.930;13.334;2022-09-09T02:41:32;13.80;99.90
27633;DHT22;15046;50.930;13.334;2022-09-09T02:43:58;13.80;99.90
27633;DHT22;15046;50.930;13.334;2022-09-09T02:49:00;13.80;99.90
27633;DHT22;15046;50.930;13.334;2022-09-09T02:51:42;13.80;99.90
27633;DHT22;15046;50.930;13.334;2022-09-09T02:56:52;13.70;99.90
27633;DHT22;15046;50.930;13.334;2022-09-09T02:59:22;13.70;99.90
27633;DHT22;15046;50.930;13.334;2022-09-09T03:01:50;13.70;99.90
27633;DHT22;15046;50.930;13.334;2022-09-09T03:04:16;13.60;99.90
27633;DHT22;15046;50.930;13.334;2022-09-09T03:06:42;13.70;99.90
27633;DHT22;15046;50.930;13.334;2022-09-09T03:09:08;13.70;99.90
27633;DHT22;15046;50.930;13.334;2022-09-09T03:11:36;13.60;99.90
27633;DHT22;15046;50.930;13.334;2022-09-09T03:14:02;13.60;99.90
27633;DHT22;15046;50.930;13.334;2022-09-09T03:16:28;13.70;99.90
27633;DHT22;15046;50.930;13.334;2022-09-09T03:18:57;13.70;99.90
27633;DHT22;15046;50.930;13.334;2022-09-09T03:21:23;13.70;99.90
27633;DHT22;15046;50.930;13.334;2022-09-09T03:23:50;13.60;99.90
27633;DHT22;15046;50.930;13.334;2022-09-09T03:26:16;13.60;99.90
27633;DHT22;15046;50.930;13.334;2022-09-09T03:28:42;13.60;99.90
27633;DHT22;15046;50.930;13.334;2022-09-09T03:31:08;13.60;99.90
27633;DHT22;15046;50.930;13.334;2022-09-09T03:33:38;13.60;99.90
27633;DHT22;15046;50.930;13.334;2022-09-09T03:36:05;13.60;99.90
27633;DHT22;15046;50.930;13.334;2022-09-09T03:38:33;13.60;99.90
27633;DHT22;15046;50.930;13.334;2022-09-09T03:41:00;13.60;99.90
27633;DHT22;15046;50.930;13.334;2022-09-09T03:43:28;13.60;99.90
27633;DHT22;15046;50.930;13.334;2022-09-09T03:45:55;13.60;99.90
27633;DHT22;15046;50.930;13.334;2022-09-09T03:48:22;13.60;99.90
27633;DHT22;15046;50.930;13.334;2022-09-09T03:50:52;13.60;99.90
27633;DHT22;15046;50.930;13.334;2022-09-09T03:53:20;13.60;99.90
27633;DHT22;15046;50.930;13.334;2022-09-09T03:55:49;13.50;99.90
27633;DHT22;15046;50.930;13.334;2022-09-09T03:58:16;13.50;99.90
27633;DHT22;15046;50.930;13.334;2022-09-09T04:00:59;13.60;99.90
27633;DHT22;15046;50.930;13.334;2022-09-09T04:03:28;13.60;99.90
27633;DHT22;15046;50.930;13.334;2022-09-09T04:05:56;13.70;99.90
27633;DHT22;15046;50.930;13.334;2022-09-09T04:08:22;13.70;99.90
27633;DHT22;15046;50.930;13.334;2022-09-09T04:10:51;13.70;99.90
27633;DHT22;15046;50.930;13.334;2022-09-09T04:13:18;13.70;99.90
27633;DHT22;15046;50.930;13.334;2022-09-09T04:15:51;13.80;99.90
27633;DHT22;15046;50.930;13.334;2022-09-09T04:18:19;13.80;99.90
27633;DHT22;15046;50.930;13.334;2022-09-09T04:20:49;13.80;99.90
27633;DHT22;15046;50.930;13.334;2022-09-09T04:23:16;13.80;99.90
27633;DHT22;15046;50.930;13.334;2022-09-09T04:25:45;13.90;99.90
27633;DHT22;15046;50.930;13.334;2022-09-09T04:28:13;13.80;99.90
27633;DHT22;15046;50.930;13.334;2022-09-09T04:30:40;13.90;99.90
27633;DHT22;15046;50.930;13.334;2022-09-09T04:33:06;13.90;99.90
27633;DHT22;15046;50.930;13.334;2022-09-09T04:35:33;13.90;99.90
27633;DHT22;15046;50.930;13.334;2022-09-09T04:37:59;14.00;99.90
27633;DHT22;15046;50.930;13.334;2022-09-09T04:40:25;13.90;99.90
27633;DHT22;15046;50.930;13.334;2022-09-09T04:42:51;13.90;99.90
27633;DHT22;15046;50.930;13.334;2022-09-09T04:45:17;13.90;99.90
27633;DHT22;15046;50.930;13.334;2022-09-09T04:51:42;14.00;99.90
27633;DHT22;15046;50.930;13.334;2022-09-09T04:54:50;14.00;99.90
27633;DHT22;15046;50.930;13.334;2022-09-09T04:57:30;14.00;99.90
27633;DHT22;15046;50.930;13.334;2022-09-09T05:05:40;14.10;99.90
27633;DHT22;15046;50.930;13.334;2022-09-09T05:08:07;14.10;99.90
27633;DHT22;15046;50.930;13.334;2022-09-09T05:10:36;14.10;99.90
27633;DHT22;15046;50.930;13.334;2022-09-09T05:13:02;14.20;99.90
27633;DHT22;15046;50.930;13.334;2022-09-09T05:15:28;14.20;99.90
27633;DHT22;15046;50.930;13.334;2022-09-09T05:18:00;14.20;99.90
27633;DHT22;15046;50.930;13.334;2022-09-09T05:20:27;14.30;99.90
27633;DHT22;15046;50.930;13.334;2022-09-09T05:22:56;14.40;99.90
27633;DHT22;15046;50.930;13.334;2022-09-09T05:25:23;14.40;99.90
27633;DHT22;15046;50.930;13.334;2022-09-09T05:27:50;14.40;99.90
27633;DHT22;15046;50.930;13.334;2022-09-09T05:30:16;14.50;99.90
27633;DHT22;15046;50.930;13.334;2022-09-09T05:32:44;14.50;99.90
27633;DHT22;15046;50.930;13.334;2022-09-09T05:35:10;14.50;99.90
27633;DHT22;15046;50.930;13.334;2022-09-09T05:37:35;14.60;99.90
27633;DHT22;15046;50.930;13.334;2022-09-09T05:40:01;14.60;99.90
27633;DHT22;15046;50.930;13.334;2022-09-09T05:42:31;14.70;99.90
27633;DHT22;15046;50.930;13.334;2022-09-09T05:44:58;14.70;99.90
27633;DHT22;15046;50.930;13.334;2022-09-09T05:47:24;14.80;99.90
27633;DHT22;15046;50.930;13.334;2022-09-09T05:49:50;14.80;99.90
27633;DHT22;15046;50.930;13.334;2022-09-09T05:52:15;14.80;99.90
27633;DHT22;15046;50.930;13.334;2022-09-09T05:54:41;14.80;99.90
27633;DHT22;15046;50.930;13.334;2022-09-09T05:57:08;14.90;99.90
27633;DHT22;15046;50.930;13.334;2022-09-09T05:59:34;14.90;99.90
27633;DHT22;15046;50.930;13.334;2022-09-09T06:02:00;14.90;99.90
27633;DHT22;15046;50.930;13.334;2022-09-09T06:04:25;15.00;99.90
27633;DHT22;15046;50.930;13.334;2022-09-09T06:06:51;15.10;99.90
27633;DHT22;15046;50.930;13.334;2022-09-09T06:09:17;15.20;99.90
27633;DHT22;15046;50.930;13.334;2022-09-09T06:11:43;15.20;99.90
27633;DHT22;15046;50.930;13.334;2022-09-09T06:14:09;15.20;99.90
27633;DHT22;15046;50.930;13.334;2022-09-09T06:16:35;15.30;99.90
27633;DHT22;15046;50.930;13.334;2022-09-09T06:19:03;15.40;99.90
27633;DHT22;15046;50.930;13.334;2022-09-09T06:21:34;15.40;99.90
27633;DHT22;15046;50.930;13.334;2022-09-09T06:24:03;15.50;99.90
27633;DHT22;15046;50.930;13.334;2022-09-09T06:26:33;15.50;99.90
27633;DHT22;15046;50.930;13.334;2022-09-09T06:28:59;15.50;99.90
27633;DHT22;15046;50.930;13.334;2022-09-09T06:31:27;15.60;99.90
27633;DHT22;15046;50.930;13.334;2022-09-09T06:33:56;15.60;99.90
27633;DHT22;15046;50.930;13.334;2022-09-09T06:36:28;15.70;99.90
27633;DHT22;15046;50.930;13.334;2022-09-09T06:38:55;15.80;99.90
27633;DHT22;15046;50.930;13.334;2022-09-09T06:41:22;15.80;99.90
27633;DHT22;15046;50.930;13.334;2022-09-09T06:43:48;15.90;99.90
27633;DHT22;15046;50.930;13.334;2022-09-09T06:46:19;15.90;99.90
27633;DHT22;15046;50.930;13.334;2022-09-09T06:48:46;15.90;99.90
27633;DHT22;15046;50.930;13.334;2022-09-09T06:51:16;16.10;99.90
27633;DHT22;15046;50.930;13.334;2022-09-09T06:53:43;16.30;99.90
27633;DHT22;15046;50.930;13.334;2022-09-09T06:58:40;16.70;99.90
27633;DHT22;15046;50.930;13.334;2022-09-09T07:01:11;16.90;99.90
27633;DHT22;15046;50.930;13.334;2022-09-09T07:03:41;17.10;99.90
27633;DHT22;15046;50.930;13.334;2022-09-09T07:06:11;17.20;99.90
27633;DHT22;15046;50.930;13.334;2022-09-09T07:08:40;17.30;99.90
27633;DHT22;15046;50.930;13.334;2022-09-09T07:11:07;17.50;99.90
27633;DHT22;15046;50.930;13.334;2022-09-09T07:13:34;17.50;99.90
27633;DHT22;15046;50.930;13.334;2022-09-09T07:16:09;17.60;99.90
27633;DHT22;15046;50.930;13.334;2022-09-09T07:18:35;17.60;99.90
27633;DHT22;15046;50.930;13.334;2022-09-09T07:21:02;17.70;99.90
27633;DHT22;15046;50.930;13.334;2022-09-09T07:23:29;17.40;99.90
27633;DHT22;15046;50.930;13.334;2022-09-09T07:25:56;16.90;99.90
27633;DHT22;15046;50.930;13.334;2022-09-09T07:28:22;16.50;99.90
27633;DHT22;15046;50.930;13.334;2022-09-09T07:30:59;16.20;99.90
27633;DHT22;15046;50.930;13.334;2022-09-09T07:33:26;16.00;99.90
27633;DHT22;15046;50.930;13.334;2022-09-09T07:35:53;15.80;99.90
27633;DHT22;15046;50.930;13.334;2022-09-09T07:38:20;15.80;99.90
27633;DHT22;15046;50.930;13.334;2022-09-09T07:40:46;15.80;99.90
27633;DHT22;15046;50.930;13.334;2022-09-09T07:43:13;15.90;99.90
27633;DHT22;15046;50.930;13.334;2022-09-09T07:45:39;16.00;99.90
27633;DHT22;15046;50.930;13.334;2022-09-09T07:48:06;16.00;99.90
27633;DHT22;15046;50.930;13.334;2022-09-09T07:50:32;16.10;99.90
27633;DHT22;15046;50.930;13.334;2022-09-09T07:52:58;16.10;99.90
27633;DHT22;15046;50.930;13.334;2022-09-09T07:55:25;16.20;99.90
27633;DHT22;15046;50.930;13.334;2022-09-09T07:57:51;16.30;99.90
27633;DHT22;15046;50.930;13.334;2022-09-09T08:00:17;16.40;99.90
27633;DHT22;15046;50.930;13.334;2022-09-09T08:02:44;16.60;99.90
27633;DHT22;15046;50.930;13.334;2022-09-09T08:05:12;16.70;99.90
27633;DHT22;15046;50.930;13.334;2022-09-09T08:07:42;16.80;99.90
27633;DHT22;15046;50.930;13.334;2022-09-09T08:10:08;16.90;99.90
27633;DHT22;15046;50.930;13.334;2022-09-09T08:12:34;17.00;99.90
27633;DHT22;15046;50.930;13.334;2022-09-09T08:14:59;17.10;99.90
27633;DHT22;15046;50.930;13.334;2022-09-09T08:17:25;17.10;99.90
27633;DHT22;15046;50.930;13.334;2022-09-09T08:19:51;17.20;99.90
27633;DHT22;15046;50.930;13.334;2022-09-09T08:22:16;17.20;99.90
27633;DHT22;15046;50.930;13.334;2022-09-09T08:24:42;17.20;99.90
27633;DHT22;15046;50.930;13.334;2022-09-09T08:27:08;17.20;99.90
27633;DHT22;15046;50.930;13.334;2022-09-09T08:29:35;17.20;99.90
27633;DHT22;15046;50.930;13.334;2022-09-09T08:32:03;17.20;99.90
27633;DHT22;15046;50.930;13.334;2022-09-09T08:34:29;17.30;99.90
27633;DHT22;15046;50.930;13.334;2022-09-09T08:36:56;17.40;99.90
27633;DHT22;15046;50.930;13.334;2022-09-09T08:39:22;17.50;99.90
27633;DHT22;15046;50.930;13.334;2022-09-09T08:42:09;17.60;99.90
27633;DHT22;15046;50.930;13.334;2022-09-09T08:45:00;17.70;99.90
27633;DHT22;15046;50.930;13.334;2022-09-09T08:50:42;18.00;99.90
27633;DHT22;15046;50.930;13.334;2022-09-09T08:55:48;18.00;99.90
27633;DHT22;15046;50.930;13.334;2022-09-09T08:58:19;18.10;99.90
27633;DHT22;15046;50.930;13.334;2022-09-09T09:04:02;18.10;99.90
27633;DHT22;15046;50.930;13.334;2022-09-09T09:12:16;18.40;99.90
27633;DHT22;15046;50.930;13.334;2022-09-09T09:14:45;18.60;99.90
27633;DHT22;15046;50.930;13.334;2022-09-09T09:17:23;18.80;99.90
27633;DHT22;15046;50.930;13.334;2022-09-09T09:19:49;18.90;99.90
27633;DHT22;15046;50.930;13.334;2022-09-09T09:27:57;19.50;99.90
27633;DHT22;15046;50.930;13.334;2022-09-09T09:30:30;19.80;99.90
27633;DHT22;15046;50.930;13.334;2022-09-09T09:33:06;20.00;99.90
27633;DHT22;15046;50.930;13.334;2022-09-09T09:35:34;20.30;99.90
27633;DHT22;15046;50.930;13.334;2022-09-09T09:38:00;20.60;99.90
27633;DHT22;15046;50.930;13.334;2022-09-09T09:40:26;21.10;99.90
27633;DHT22;15046;50.930;13.334;2022-09-09T09:43:02;21.40;99.90
27633;DHT22;15046;50.930;13.334;2022-09-09T09:45:51;21.50;99.90
27633;DHT22;15046;50.930;13.334;2022-09-09T09:48:16;21.60;99.90
27633;DHT22;15046;50.930;13.334;2022-09-09T09:50:52;21.90;99.90
27633;DHT22;15046;50.930;13.334;2022-09-09T09:53:29;22.80;99.90
27633;DHT22;15046;50.930;13.334;2022-09-09T09:56:11;23.30;99.90
27633;DHT22;15046;50.930;13.334;2022-09-09T09:58:50;23.60;99.90
27633;DHT22;15046;50.930;13.334;2022-09-09T10:01:35;25.40;99.90
27633;DHT22;15046;50.930;13.334;2022-09-09T10:04:22;26.20;99.90
27633;DHT22;15046;50.930;13.334;2022-09-09T10:06:51;26.40;99.50
27633;DHT22;15046;50.930;13.334;2022-09-09T10:09:28;25.50;97.90
27633;DHT22;15046;50.930;13.334;2022-09-09T10:12:22;24.50;97.20
27633;DHT22;15046;50.930;13.334;2022-09-09T10:17:29;23.10;98.00
27633;DHT22;15046;50.930;13.334;2022-09-09T10:20:19;22.60;97.50
27633;DHT22;15046;50.930;13.334;2022-09-09T10:22:51;22.10;97.80
27633;DHT22;15046;50.930;13.334;2022-09-09T10:28:03;21.70;97.90
27633;DHT22;15046;50.930;13.334;2022-09-09T10:30:40;21.70;97.90
27633;DHT22;15046;50.930;13.334;2022-09-09T10:33:22;22.70;97.50
27633;DHT22;15046;50.930;13.334;2022-09-09T10:36:16;23.50;96.40
27633;DHT22;15046;50.930;13.334;2022-09-09T10:38:57;23.80;95.60
27633;DHT22;15046;50.930;13.334;2022-09-09T10:44:44;25.40;93.30
27633;DHT22;15046;50.930;13.334;2022-09-09T10:47:17;25.70;92.90
27633;DHT22;15046;50.930;13.334;2022-09-09T10:52:54;29.40;86.50
27633;DHT22;15046;50.930;13.334;2022-09-09T10:55:27;30.70;80.00
27633;DHT22;15046;50.930;13.334;2022-09-09T10:57:58;31.70;77.00
27633;DHT22;15046;50.930;13.334;2022-09-09T11:00:46;32.00;73.10
27633;DHT22;15046;50.930;13.334;2022-09-09T11:03:25;32.00;70.80
27633;DHT22;15046;50.930;13.334;2022-09-09T11:08:30;33.50;66.20
27633;DHT22;15046;50.930;13.334;2022-09-09T11:11:03;34.20;61.60
27633;DHT22;15046;50.930;13.334;2022-09-09T11:16:39;34.50;57.90
27633;DHT22;15046;50.930;13.334;2022-09-09T11:21:46;34.80;57.10
27633;DHT22;15046;50.930;13.334;2022-09-09T11:27:06;34.20;56.60
27633;DHT22;15046;50.930;13.334;2022-09-09T11:40:28;29.50;58.90
27633;DHT22;15046;50.930;13.334;2022-09-09T11:43:09;28.40;59.70
27633;DHT22;15046;50.930;13.334;2022-09-09T11:45:38;27.10;62.20
27633;DHT22;15046;50.930;13.334;2022-09-09T11:48:05;26.30;65.00
27633;DHT22;15046;50.930;13.334;2022-09-09T11:50:37;25.50;65.10
27633;DHT22;15046;50.930;13.334;2022-09-09T11:55:46;24.50;66.20
27633;DHT22;15046;50.930;13.334;2022-09-09T12:00:39;24.70;67.40
27633;DHT22;15046;50.930;13.334;2022-09-09T12:05:56;24.80;68.00
27633;DHT22;15046;50.930;13.334;2022-09-09T12:08:27;27.10;67.40
27633;DHT22;15046;50.930;13.334;2022-09-09T12:10:58;29.90;62.40
27633;DHT22;15046;50.930;13.334;2022-09-09T12:13:29;31.50;57.80
27633;DHT22;15046;50.930;13.334;2022-09-09T12:15:57;32.60;55.90
27633;DHT22;15046;50.930;13.334;2022-09-09T12:18:37;32.90;54.10
27633;DHT22;15046;50.930;13.334;2022-09-09T12:21:27;32.80;53.70
27633;DHT22;15046;50.930;13.334;2022-09-09T12:24:11;33.10;53.00
27633;DHT22;15046;50.930;13.334;2022-09-09T12:29:22;33.20;51.80
27633;DHT22;15046;50.930;13.334;2022-09-09T12:32:13;33.60;51.90
27633;DHT22;15046;50.930;13.334;2022-09-09T12:35:18;34.10;50.40
27633;DHT22;15046;50.930;13.334;2022-09-09T12:40:00;34.40;49.50
27633;DHT22;15046;50.930;13.334;2022-09-09T12:42:28;34.30;49.40
27633;DHT22;15046;50.930;13.334;2022-09-09T12:44:59;34.30;48.90
27633;DHT22;15046;50.930;13.334;2022-09-09T12:50:22;33.40;49.30
27633;DHT22;15046;50.930;13.334;2022-09-09T12:52:53;32.00;51.50
27633;DHT22;15046;50.930;13.334;2022-09-09T12:55:23;32.30;53.10
27633;DHT22;15046;50.930;13.334;2022-09-09T12:57:51;32.30;52.60
27633;DHT22;15046;50.930;13.334;2022-09-09T13:00:20;31.20;52.70
27633;DHT22;15046;50.930;13.334;2022-09-09T13:02:54;29.90;53.60
27633;DHT22;15046;50.930;13.334;2022-09-09T13:05:34;28.80;55.30
27633;DHT22;15046;50.930;13.334;2022-09-09T13:08:09;27.80;57.80
27633;DHT22;15046;50.930;13.334;2022-09-09T13:10:50;27.00;58.80
27633;DHT22;15046;50.930;13.334;2022-09-09T13:13:22;26.50;60.10
27633;DHT22;15046;50.930;13.334;2022-09-09T13:15:56;26.10;60.40
27633;DHT22;15046;50.930;13.334;2022-09-09T13:18:37;25.80;60.90
27633;DHT22;15046;50.930;13.334;2022-09-09T13:21:06;25.50;61.50
27633;DHT22;15046;50.930;13.334;2022-09-09T13:23:34;25.10;62.90
27633;DHT22;15046;50.930;13.334;2022-09-09T13:26:25;25.20;62.70
27633;DHT22;15046;50.930;13.334;2022-09-09T13:28:55;25.40;61.40
27633;DHT22;15046;50.930;13.334;2022-09-09T13:31:35;25.70;62.00
27633;DHT22;15046;50.930;13.334;2022-09-09T13:34:32;25.50;61.20
27633;DHT22;15046;50.930;13.334;2022-09-09T13:37:03;25.30;62.30
27633;DHT22;15046;50.930;13.334;2022-09-09T13:39:36;25.20;62.30
27633;DHT22;15046;50.930;13.334;2022-09-09T13:42:03;25.20;61.40
27633;DHT22;15046;50.930;13.334;2022-09-09T13:44:34;25.10;62.00
27633;DHT22;15046;50.930;13.334;2022-09-09T13:47:22;24.90;62.70
27633;DHT22;15046;50.930;13.334;2022-09-09T13:49:52;24.80;63.00
27633;DHT22;15046;50.930;13.334;2022-09-09T13:52:18;24.70;64.30
27633;DHT22;15046;50.930;13.334;2022-09-09T13:54:51;24.50;63.80
27633;DHT22;15046;50.930;13.334;2022-09-09T13:57:22;24.40;63.40
27633;DHT22;15046;50.930;13.334;2022-09-09T13:59:50;24.40;64.00
27633;DHT22;15046;50.930;13.334;2022-09-09T14:02:16;24.40;64.90
27633;DHT22;15046;50.930;13.334;2022-09-09T14:04:42;24.60;66.00
27633;DHT22;15046;50.930;13.334;2022-09-09T14:07:15;24.70;65.50
27633;DHT22;15046;50.930;13.334;2022-09-09T14:09:41;24.80;64.30
27633;DHT22;15046;50.930;13.334;2022-09-09T14:12:11;24.90;64.20
27633;DHT22;15046;50.930;13.334;2022-09-09T14:14:37;25.10;65.20
27633;DHT22;15046;50.930;13.334;2022-09-09T14:17:03;25.30;65.00
27633;DHT22;15046;50.930;13.334;2022-09-09T14:19:29;25.70;63.80
27633;DHT22;15046;50.930;13.334;2022-09-09T14:21:57;26.20;63.30
27633;DHT22;15046;50.930;13.334;2022-09-09T14:24:23;27.00;62.20
27633;DHT22;15046;50.930;13.334;2022-09-09T14:26:49;27.60;61.00
27633;DHT22;15046;50.930;13.334;2022-09-09T14:29:15;28.00;59.40
27633;DHT22;15046;50.930;13.334;2022-09-09T14:31:40;28.30;59.90
27633;DHT22;15046;50.930;13.334;2022-09-09T14:34:06;28.70;59.10
27633;DHT22;15046;50.930;13.334;2022-09-09T14:36:32;28.70;58.20
27633;DHT22;15046;50.930;13.334;2022-09-09T14:38:59;28.90;57.50
27633;DHT22;15046;50.930;13.334;2022-09-09T14:41:24;29.00;57.30
27633;DHT22;15046;50.930;13.334;2022-09-09T14:43:51;28.80;56.80
27633;DHT22;15046;50.930;13.334;2022-09-09T14:46:19;28.40;57.10
27633;DHT22;15046;50.930;13.334;2022-09-09T14:48:45;28.70;58.50
27633;DHT22;15046;50.930;13.334;2022-09-09T14:51:14;29.30;57.00
27633;DHT22;15046;50.930;13.334;2022-09-09T14:53:41;29.10;56.20
27633;DHT22;15046;50.930;13.334;2022-09-09T14:56:13;29.70;56.10
27633;DHT22;15046;50.930;13.334;2022-09-09T14:58:39;30.40;54.80
27633;DHT22;15046;50.930;13.334;2022-09-09T15:01:10;30.80;53.90
27633;DHT22;15046;50.930;13.334;2022-09-09T15:03:39;31.20;54.10
27633;DHT22;15046;50.930;13.334;2022-09-09T15:06:10;31.90;53.60
27633;DHT22;15046;50.930;13.334;2022-09-09T15:08:38;32.10;51.90
27633;DHT22;15046;50.930;13.334;2022-09-09T15:11:05;32.00;50.90
27633;DHT22;15046;50.930;13.334;2022-09-09T15:13:36;31.40;51.00
27633;DHT22;15046;50.930;13.334;2022-09-09T15:16:16;30.50;51.50
27633;DHT22;15046;50.930;13.334;2022-09-09T15:18:44;29.50;52.00
27633;DHT22;15046;50.930;13.334;2022-09-09T15:21:18;28.60;53.00
27633;DHT22;15046;50.930;13.334;2022-09-09T15:23:45;27.90;54.30
27633;DHT22;15046;50.930;13.334;2022-09-09T15:26:11;27.30;55.80
27633;DHT22;15046;50.930;13.334;2022-09-09T15:28:40;26.80;56.80
27633;DHT22;15046;50.930;13.334;2022-09-09T15:31:17;26.40;56.90
27633;DHT22;15046;50.930;13.334;2022-09-09T15:36:21;25.80;57.70
27633;DHT22;15046;50.930;13.334;2022-09-09T15:38:47;25.50;58.40
27633;DHT22;15046;50.930;13.334;2022-09-09T15:41:14;25.20;59.70
27633;DHT22;15046;50.930;13.334;2022-09-09T15:43:45;25.00;60.00
27633;DHT22;15046;50.930;13.334;2022-09-09T15:46:38;24.70;60.00
27633;DHT22;15046;50.930;13.334;2022-09-09T15:49:09;24.50;60.50
27633;DHT22;15046;50.930;13.334;2022-09-09T15:51:37;24.20;61.20
27633;DHT22;15046;50.930;13.334;2022-09-09T15:54:04;24.00;61.80
27633;DHT22;15046;50.930;13.334;2022-09-09T15:56:31;23.80;63.20
27633;DHT22;15046;50.930;13.334;2022-09-09T15:58:58;23.70;63.70
27633;DHT22;15046;50.930;13.334;2022-09-09T16:01:25;23.60;64.00
27633;DHT22;15046;50.930;13.334;2022-09-09T16:03:52;23.40;64.10
27633;DHT22;15046;50.930;13.334;2022-09-09T16:06:20;23.20;64.70
27633;DHT22;15046;50.930;13.334;2022-09-09T16:08:49;23.10;66.00
27633;DHT22;15046;50.930;13.334;2022-09-09T16:11:20;23.00;66.60
27633;DHT22;15046;50.930;13.334;2022-09-09T16:13:48;23.00;66.70
27633;DHT22;15046;50.930;13.334;2022-09-09T16:16:16;23.20;67.00
27633;DHT22;15046;50.930;13.334;2022-09-09T16:18:44;23.20;66.20
27633;DHT22;15046;50.930;13.334;2022-09-09T16:21:17;23.20;65.90
27633;DHT22;15046;50.930;13.334;2022-09-09T16:23:43;23.20;66.00
27633;DHT22;15046;50.930;13.334;2022-09-09T16:26:14;23.20;66.00
27633;DHT22;15046;50.930;13.334;2022-09-09T16:28:40;23.20;66.50
27633;DHT22;15046;50.930;13.334;2022-09-09T16:31:08;23.20;67.30
27633;DHT22;15046;50.930;13.334;2022-09-09T16:33:36;23.20;67.80
27633;DHT22;15046;50.930;13.334;2022-09-09T16:36:11;23.20;66.70
27633;DHT22;15046;50.930;13.334;2022-09-09T16:38:38;23.10;66.40
27633;DHT22;15046;50.930;13.334;2022-09-09T16:41:06;22.90;66.40
27633;DHT22;15046;50.930;13.334;2022-09-09T16:43:32;22.80;65.80
27633;DHT22;15046;50.930;13.334;2022-09-09T16:45:58;22.60;65.50
27633;DHT22;15046;50.930;13.334;2022-09-09T16:48:30;22.30;65.20
27633;DHT22;15046;50.930;13.334;2022-09-09T16:51:02;22.20;65.20
27633;DHT22;15046;50.930;13.334;2022-09-09T16:53:31;22.10;65.30
27633;DHT22;15046;50.930;13.334;2022-09-09T16:55:57;22.00;66.00
27633;DHT22;15046;50.930;13.334;2022-09-09T16:58:23;22.00;66.60
27633;DHT22;15046;50.930;13.334;2022-09-09T17:00:49;22.00;67.10
27633;DHT22;15046;50.930;13.334;2022-09-09T17:03:17;22.00;67.30
27633;DHT22;15046;50.930;13.334;2022-09-09T17:05:42;22.00;67.00
27633;DHT22;15046;50.930;13.334;2022-09-09T17:08:10;21.90;67.70
27633;DHT22;15046;50.930;13.334;2022-09-09T17:10:41;21.80;67.90
27633;DHT22;15046;50.930;13.334;2022-09-09T17:13:07;21.80;69.70
27633;DHT22;15046;50.930;13.334;2022-09-09T17:15:38;21.80;70.10
27633;DHT22;15046;50.930;13.334;2022-09-09T17:18:05;21.60;69.50
27633;DHT22;15046;50.930;13.334;2022-09-09T17:20:35;21.50;69.90
27633;DHT22;15046;50.930;13.334;2022-09-09T17:23:01;21.50;71.50
27633;DHT22;15046;50.930;13.334;2022-09-09T17:25:27;21.40;70.70
27633;DHT22;15046;50.930;13.334;2022-09-09T17:27:53;21.40;70.50
27633;DHT22;15046;50.930;13.334;2022-09-09T17:30:19;21.20;70.90
27633;DHT22;15046;50.930;13.334;2022-09-09T17:32:45;21.00;71.50
27633;DHT22;15046;50.930;13.334;2022-09-09T17:35:15;20.80;71.80
27633;DHT22;15046;50.930;13.334;2022-09-09T17:37:41;20.80;72.10
27633;DHT22;15046;50.930;13.334;2022-09-09T17:40:07;20.60;72.40
27633;DHT22;15046;50.930;13.334;2022-09-09T17:42:34;20.50;72.50